sensor_id;sensor_type;location;lat;lon;timestamp;pressure;altitude;pressure_sealevel;temperature;humidity
22241;BME280;11289;52.524;13.694;2023-03-13T00:01:22;100016.97;;;4.65;94.22
22241;BME280;11289;52.524;13.694;2023-03-13T00:03:48;100014.00;;;4.62;94.05
22241;BME280;11289;52.524;13.694;2023-03-13T00:06:14;100017.47;;;4.67;94.22
22241;BME280;11289;52.524;13.694;2023-03-13T00:08:40;100016.34;;;4.68;94.64
22241;BME280;11289;52.524;13.694;2023-03-13T00:11:09;100019.09;;;4.68;94.46
22241;BME280;11289;52.524;13.694;2023-03-13T00:13:36;100018.31;;;4.68;94.30
22241;BME280;11289;52.524;13.694;2023-03-13T00:16:07;100028.06;;;4.74;94.21
22241;BME280;11289;52.524;13.694;2023-03-13T00:18:33;100002.81;;;4.58;94.77
22241;BME280;11289;52.524;13.694;2023-03-13T00:23:24;100006.88;;;4.75;94.85
22241;BME280;11289;52.524;13.694;2023-03-13T00:25:56;100006.47;;;4.81;94.67
22241;BME280;11289;52.524;13.694;2023-03-13T00:28:22;100009.00;;;4.78;95.05
22241;BME280;11289;52.524;13.694;2023-03-13T00:30:47;100010.03;;;4.82;95.32
22241;BME280;11289;52.524;13.694;2023-03-13T00:33:12;100013.81;;;4.86;95.55
22241;BME280;11289;52.524;13.694;2023-03-13T00:35:38;100001.78;;;4.82;95.64
22241;BME280;11289;52.524;13.694;2023-03-13T00:38:03;99996.50;;;4.85;95.67
22241;BME280;11289;52.524;13.694;2023-03-13T00:40:29;99997.28;;;4.86;95.94
22241;BME280;11289;52.524;13.694;2023-03-13T00:42:54;100001.06;;;4.90;95.72
22241;BME280;11289;52.524;13.694;2023-03-13T00:45:19;99991.69;;;4.91;95.47
22241;BME280;11289;52.524;13.694;2023-03-13T00:47:45;99978.44;;;4.93;95.78
22241;BME280;11289;52.524;13.694;2023-03-13T00:50:10;99984.97;;;4.97;96.52
22241;BME280;11289;52.524;13.694;2023-03-13T00:52:36;99981.09;;;4.98;96.65
22241;BME280;11289;52.524;13.694;2023-03-13T00:55:01;99976.72;;;4.97;96.80
22241;BME280;11289;52.524;13.694;2023-03-13T00:57:28;99981.81;;;5.04;96.14
22241;BME280;11289;52.524;13.694;2023-03-13T00:59:53;99957.94;;;4.99;96.52
22241;BME280;11289;52.524;13.694;2023-03-13T01:02:19;99959.25;;;5.02;96.44
22241;BME280;11289;52.524;13.694;2023-03-13T01:04:44;99951.81;;;5.02;96.93
22241;BME280;11289;52.524;13.694;2023-03-13T01:07:09;99953.66;;;5.07;96.87
22241;BME280;11289;52.524;13.694;2023-03-13T01:09:35;99954.69;;;5.11;96.77
22241;BME280;11289;52.524;13.694;2023-03-13T01:12:00;99969.72;;;5.14;96.68
22241;BME280;11289;52.524;13.694;2023-03-13T01:14:25;99946.22;;;5.08;96.54
22241;BME280;11289;52.524;13.694;2023-03-13T01:16:51;99953.03;;;5.10;96.96
22241;BME280;11289;52.524;13.694;2023-03-13T01:19:16;99966.88;;;5.19;96.97
22241;BME280;11289;52.524;13.694;2023-03-13T01:21:43;99965.94;;;5.23;97.37
22241;BME280;11289;52.524;13.694;2023-03-13T01:24:09;99952.50;;;5.22;97.33
22241;BME280;11289;52.524;13.694;2023-03-13T01:26:35;99959.50;;;5.28;97.31
22241;BME280;11289;52.524;13.694;2023-03-13T01:29:00;99951.69;;;5.21;97.13
22241;BME280;11289;52.524;13.694;2023-03-13T01:31:31;99963.25;;;5.32;97.37
22241;BME280;11289;52.524;13.694;2023-03-13T01:33:59;99958.16;;;5.26;97.66
22241;BME280;11289;52.524;13.694;2023-03-13T01:36:25;99969.88;;;5.31;97.09
22241;BME280;11289;52.524;13.694;2023-03-13T01:38:52;99966.22;;;5.36;97.26
22241;BME280;11289;52.524;13.694;2023-03-13T01:41:19;99970.88;;;5.35;97.39
22241;BME280;11289;52.524;13.694;2023-03-13T01:43:45;99964.75;;;5.38;97.51
22241;BME280;11289;52.524;13.694;2023-03-13T01:46:26;99969.63;;;5.41;97.35
22241;BME280;11289;52.524;13.694;2023-03-13T01:48:56;99961.38;;;5.41;97.11
22241;BME280;11289;52.524;13.694;2023-03-13T01:51:28;99955.56;;;5.43;97.28
22241;BME280;11289;52.524;13.694;2023-03-13T01:56:58;99929.81;;;5.39;96.91
22241;BME280;11289;52.524;13.694;2023-03-13T01:59:28;99937.91;;;5.44;97.13
22241;BME280;11289;52.524;13.694;2023-03-13T02:01:57;99933.53;;;5.43;96.95
22241;BME280;11289;52.524;13.694;2023-03-13T02:04:23;99912.44;;;5.38;96.55
22241;BME280;11289;52.524;13.694;2023-03-13T02:06:53;99926.41;;;5.42;96.75
22241;BME280;11289;52.524;13.694;2023-03-13T02:09:24;99928.84;;;5.44;96.46
22241;BME280;11289;52.524;13.694;2023-03-13T02:14:26;99936.50;;;5.47;96.65
22241;BME280;11289;52.524;13.694;2023-03-13T02:16:53;99930.97;;;5.47;96.32
22241;BME280;11289;52.524;13.694;2023-03-13T02:19:45;99928.22;;;5.47;96.41
22241;BME280;11289;52.524;13.694;2023-03-13T02:22:19;99916.09;;;5.48;96.10
22241;BME280;11289;52.524;13.694;2023-03-13T02:27:31;99899.38;;;5.44;95.79
22241;BME280;11289;52.524;13.694;2023-03-13T02:29:57;99890.63;;;5.42;96.34
22241;BME280;11289;52.524;13.694;2023-03-13T02:32:22;99872.91;;;5.34;95.96
22241;BME280;11289;52.524;13.694;2023-03-13T02:34:53;99889.47;;;5.43;96.02
22241;BME280;11289;52.524;13.694;2023-03-13T02:37:20;99896.00;;;5.47;96.05
22241;BME280;11289;52.524;13.694;2023-03-13T02:39:47;99896.00;;;5.47;95.77
22241;BME280;11289;52.524;13.694;2023-03-13T02:42:16;99889.19;;;5.45;95.55
22241;BME280;11289;52.524;13.694;2023-03-13T02:44:42;99875.84;;;5.38;95.81
22241;BME280;11289;52.524;13.694;2023-03-13T02:47:10;99878.47;;;5.43;95.78
22241;BME280;11289;52.524;13.694;2023-03-13T02:49:36;99874.91;;;5.43;95.83
22241;BME280;11289;52.524;13.694;2023-03-13T02:52:13;99874.28;;;5.46;95.83
22241;BME280;11289;52.524;13.694;2023-03-13T02:54:43;99879.16;;;5.49;95.74
22241;BME280;11289;52.524;13.694;2023-03-13T02:57:09;99862.25;;;5.41;95.91
22241;BME280;11289;52.524;13.694;2023-03-13T02:59:35;99866.84;;;5.46;95.60
22241;BME280;11289;52.524;13.694;2023-03-13T03:02:00;99856.44;;;5.43;95.68
22241;BME280;11289;52.524;13.694;2023-03-13T03:04:26;99862.31;;;5.50;95.57
22241;BME280;11289;52.524;13.694;2023-03-13T03:06:52;99851.13;;;5.47;95.53
22241;BME280;11289;52.524;13.694;2023-03-13T03:09:18;99853.78;;;5.52;95.56
22241;BME280;11289;52.524;13.694;2023-03-13T03:11:44;99850.81;;;5.48;95.40
22241;BME280;11289;52.524;13.694;2023-03-13T03:14:10;99855.38;;;5.53;95.62
22241;BME280;11289;52.524;13.694;2023-03-13T03:16:36;99834.63;;;5.47;95.62
22241;BME280;11289;52.524;13.694;2023-03-13T03:19:02;99832.66;;;5.47;95.61
22241;BME280;11289;52.524;13.694;2023-03-13T03:21:28;99834.50;;;5.52;95.74
22241;BME280;11289;52.524;13.694;2023-03-13T03:23:53;99827.66;;;5.49;95.61
22241;BME280;11289;52.524;13.694;2023-03-13T03:26:19;99823.16;;;5.53;95.54
22241;BME280;11289;52.524;13.694;2023-03-13T03:28:45;99815.22;;;5.52;95.58
22241;BME280;11289;52.524;13.694;2023-03-13T03:31:12;99820.09;;;5.55;95.94
22241;BME280;11289;52.524;13.694;2023-03-13T03:33:38;99824.81;;;5.63;95.75
22241;BME280;11289;52.524;13.694;2023-03-13T03:36:07;99814.44;;;5.60;95.69
22241;BME280;11289;52.524;13.694;2023-03-13T03:38:33;99812.50;;;5.61;96.10
22241;BME280;11289;52.524;13.694;2023-03-13T03:40:58;99801.31;;;5.57;96.03
22241;BME280;11289;52.524;13.694;2023-03-13T03:43:24;99804.72;;;5.63;95.68
22241;BME280;11289;52.524;13.694;2023-03-13T03:45:49;99812.56;;;5.69;95.59
22241;BME280;11289;52.524;13.694;2023-03-13T03:48:15;99810.13;;;5.68;95.86
22241;BME280;11289;52.524;13.694;2023-03-13T03:50:41;99807.38;;;5.68;95.60
22241;BME280;11289;52.524;13.694;2023-03-13T03:53:07;99800.38;;;5.70;95.44
22241;BME280;11289;52.524;13.694;2023-03-13T03:55:33;99802.50;;;5.73;95.81
22241;BME280;11289;52.524;13.694;2023-03-13T03:57:59;99796.50;;;5.71;95.23
22241;BME280;11289;52.524;13.694;2023-03-13T04:00:24;99797.00;;;5.73;95.82
22241;BME280;11289;52.524;13.694;2023-03-13T04:02:50;99793.13;;;5.74;95.66
22241;BME280;11289;52.524;13.694;2023-03-13T04:05:15;99791.47;;;5.73;95.42
22241;BME280;11289;52.524;13.694;2023-03-13T04:07:41;99774.75;;;5.61;95.40
22241;BME280;11289;52.524;13.694;2023-03-13T04:10:07;99779.84;;;5.77;95.99
22241;BME280;11289;52.524;13.694;2023-03-13T04:12:32;99769.75;;;5.72;95.82
22241;BME280;11289;52.524;13.694;2023-03-13T04:14:58;99772.88;;;5.79;95.76
22241;BME280;11289;52.524;13.694;2023-03-13T04:17:23;99765.75;;;5.78;95.68
22241;BME280;11289;52.524;13.694;2023-03-13T04:19:49;99757.63;;;5.73;95.77
22241;BME280;11289;52.524;13.694;2023-03-13T04:22:14;99764.13;;;5.77;95.60
22241;BME280;11289;52.524;13.694;2023-03-13T04:24:39;99753.44;;;5.75;95.52
22241;BME280;11289;52.524;13.694;2023-03-13T04:27:05;99754.56;;;5.83;95.76
22241;BME280;11289;52.524;13.694;2023-03-13T04:29:31;99752.63;;;5.84;95.83
22241;BME280;11289;52.524;13.694;2023-03-13T04:31:57;99744.19;;;5.80;95.68
22241;BME280;11289;52.524;13.694;2023-03-13T04:34:22;99750.38;;;5.86;95.66
22241;BME280;11289;52.524;13.694;2023-03-13T04:36:48;99733.34;;;5.84;95.69
22241;BME280;11289;52.524;13.694;2023-03-13T04:39:13;99738.22;;;5.87;95.38
22241;BME280;11289;52.524;13.694;2023-03-13T04:41:39;99736.09;;;5.84;95.32
22241;BME280;11289;52.524;13.694;2023-03-13T04:44:04;99739.50;;;5.89;95.90
22241;BME280;11289;52.524;13.694;2023-03-13T04:46:30;99732.22;;;5.85;95.46
22241;BME280;11289;52.524;13.694;2023-03-13T04:48:55;99721.72;;;5.87;95.48
22241;BME280;11289;52.524;13.694;2023-03-13T04:51:20;99712.94;;;5.85;95.52
22241;BME280;11289;52.524;13.694;2023-03-13T04:53:46;99716.19;;;5.87;95.33
22241;BME280;11289;52.524;13.694;2023-03-13T04:56:20;99711.81;;;5.86;95.37
22241;BME280;11289;52.524;13.694;2023-03-13T04:58:46;99710.84;;;5.90;95.68
22241;BME280;11289;52.524;13.694;2023-03-13T05:01:11;99704.84;;;5.88;95.12
22241;BME280;11289;52.524;13.694;2023-03-13T05:03:36;99699.50;;;5.92;95.47
22241;BME280;11289;52.524;13.694;2023-03-13T05:06:02;99685.72;;;5.92;95.57
22241;BME280;11289;52.524;13.694;2023-03-13T05:08:27;99685.72;;;5.92;95.09
22241;BME280;11289;52.524;13.694;2023-03-13T05:10:53;99684.28;;;5.95;95.33
22241;BME280;11289;52.524;13.694;2023-03-13T05:13:18;99676.34;;;5.93;95.35
22241;BME280;11289;52.524;13.694;2023-03-13T05:15:44;99672.94;;;5.96;95.87
22241;BME280;11289;52.524;13.694;2023-03-13T05:18:09;99670.03;;;5.92;95.53
22241;BME280;11289;52.524;13.694;2023-03-13T05:20:34;99666.31;;;5.97;95.51
22241;BME280;11289;52.524;13.694;2023-03-13T05:23:00;99660.13;;;5.91;95.58
22241;BME280;11289;52.524;13.694;2023-03-13T05:25:25;99645.38;;;5.96;94.95
22241;BME280;11289;52.524;13.694;2023-03-13T05:27:50;99637.09;;;5.96;95.26
22241;BME280;11289;52.524;13.694;2023-03-13T05:30:16;99636.31;;;5.96;95.28
22241;BME280;11289;52.524;13.694;2023-03-13T05:32:41;99633.56;;;5.96;95.31
22241;BME280;11289;52.524;13.694;2023-03-13T05:35:07;99628.84;;;5.96;95.18
22241;BME280;11289;52.524;13.694;2023-03-13T05:37:32;99619.78;;;5.96;95.19
22241;BME280;11289;52.524;13.694;2023-03-13T05:39:57;99613.75;;;5.93;95.53
22241;BME280;11289;52.524;13.694;2023-03-13T05:42:23;99622.38;;;6.01;95.60
22241;BME280;11289;52.524;13.694;2023-03-13T05:44:49;99612.19;;;6.01;95.15
22241;BME280;11289;52.524;13.694;2023-03-13T05:47:14;99602.31;;;6.00;95.55
22241;BME280;11289;52.524;13.694;2023-03-13T05:49:41;99606.03;;;6.04;95.08
22241;BME280;11289;52.524;13.694;2023-03-13T05:52:06;99603.28;;;6.04;95.29
22241;BME280;11289;52.524;13.694;2023-03-13T05:54:32;99604.25;;;6.08;95.58
22241;BME280;11289;52.524;13.694;2023-03-13T05:56:57;99606.81;;;6.14;95.61
22241;BME280;11289;52.524;13.694;2023-03-13T05:59:23;99594.69;;;6.15;95.49
22241;BME280;11289;52.524;13.694;2023-03-13T06:01:48;99584.31;;;6.12;95.52
22241;BME280;11289;52.524;13.694;2023-03-13T06:04:13;99589.31;;;6.18;95.64
22241;BME280;11289;52.524;13.694;2023-03-13T06:06:39;99564.69;;;6.13;95.68
22241;BME280;11289;52.524;13.694;2023-03-13T06:09:04;99578.47;;;6.22;95.86
22241;BME280;11289;52.524;13.694;2023-03-13T06:11:30;99565.00;;;6.20;96.20
22241;BME280;11289;52.524;13.694;2023-03-13T06:13:55;99568.22;;;6.22;95.97
22241;BME280;11289;52.524;13.694;2023-03-13T06:16:21;99574.22;;;6.24;95.98
22241;BME280;11289;52.524;13.694;2023-03-13T06:18:46;99559.16;;;6.22;96.35
22241;BME280;11289;52.524;13.694;2023-03-13T06:21:11;99559.63;;;6.24;96.51
22241;BME280;11289;52.524;13.694;2023-03-13T06:23:37;99558.16;;;6.26;96.28
22241;BME280;11289;52.524;13.694;2023-03-13T06:26:02;99550.88;;;6.31;96.14
22241;BME280;11289;52.524;13.694;2023-03-13T06:28:28;99538.88;;;6.26;96.37
22241;BME280;11289;52.524;13.694;2023-03-13T06:30:53;99532.72;;;6.30;96.28
22241;BME280;11289;52.524;13.694;2023-03-13T06:33:19;99536.09;;;6.35;96.64
22241;BME280;11289;52.524;13.694;2023-03-13T06:35:45;99525.72;;;6.32;96.62
22241;BME280;11289;52.524;13.694;2023-03-13T06:38:10;99525.22;;;6.39;96.67
22241;BME280;11289;52.524;13.694;2023-03-13T06:40:36;99516.94;;;6.39;96.67
22241;BME280;11289;52.524;13.694;2023-03-13T06:43:02;99518.56;;;6.40;96.78
22241;BME280;11289;52.524;13.694;2023-03-13T06:45:27;99511.59;;;6.42;96.78
22241;BME280;11289;52.524;13.694;2023-03-13T06:47:53;99502.03;;;6.40;96.73
22241;BME280;11289;52.524;13.694;2023-03-13T06:50:18;99492.94;;;6.39;96.93
22241;BME280;11289;52.524;13.694;2023-03-13T06:52:45;99490.00;;;6.44;96.93
22241;BME280;11289;52.524;13.694;2023-03-13T06:55:11;99490.97;;;6.49;96.99
22241;BME280;11289;52.524;13.694;2023-03-13T06:57:37;99478.16;;;6.44;97.38
22241;BME280;11289;52.524;13.694;2023-03-13T07:00:03;99476.50;;;6.52;97.19
22241;BME280;11289;52.524;13.694;2023-03-13T07:02:30;99467.56;;;6.55;97.12
22241;BME280;11289;52.524;13.694;2023-03-13T07:04:56;99458.16;;;6.56;97.34
22241;BME280;11289;52.524;13.694;2023-03-13T07:07:21;99461.22;;;6.63;97.26
22241;BME280;11289;52.524;13.694;2023-03-13T07:09:47;99460.09;;;6.64;97.13
22241;BME280;11289;52.524;13.694;2023-03-13T07:12:12;99440.28;;;6.62;97.50
22241;BME280;11289;52.524;13.694;2023-03-13T07:14:37;99448.84;;;6.69;97.31
22241;BME280;11289;52.524;13.694;2023-03-13T07:17:03;99428.13;;;6.63;97.43
22241;BME280;11289;52.524;13.694;2023-03-13T07:19:28;99435.53;;;6.71;97.21
22241;BME280;11289;52.524;13.694;2023-03-13T07:21:53;99423.34;;;6.72;97.73
22241;BME280;11289;52.524;13.694;2023-03-13T07:24:21;99431.09;;;6.79;97.21
22241;BME280;11289;52.524;13.694;2023-03-13T07:26:46;99425.59;;;6.79;97.84
22241;BME280;11289;52.524;13.694;2023-03-13T07:29:11;99419.75;;;6.80;97.60
22241;BME280;11289;52.524;13.694;2023-03-13T07:31:37;99430.44;;;6.82;97.59
22241;BME280;11289;52.524;13.694;2023-03-13T07:34:03;99428.44;;;6.91;98.10
22241;BME280;11289;52.524;13.694;2023-03-13T07:36:28;99429.38;;;6.95;97.89
22241;BME280;11289;52.524;13.694;2023-03-13T07:38:54;99426.59;;;6.95;97.52
22241;BME280;11289;52.524;13.694;2023-03-13T07:41:20;99429.03;;;6.97;97.76
22241;BME280;11289;52.524;13.694;2023-03-13T07:43:46;99417.53;;;6.95;97.55
22241;BME280;11289;52.524;13.694;2023-03-13T07:46:13;99422.38;;;6.98;97.40
22241;BME280;11289;52.524;13.694;2023-03-13T07:48:41;99418.81;;;6.97;97.41
22241;BME280;11289;52.524;13.694;2023-03-13T07:51:15;99399.16;;;6.99;97.55
22241;BME280;11289;52.524;13.694;2023-03-13T07:53:42;99410.66;;;7.01;97.79
22241;BME280;11289;52.524;13.694;2023-03-13T07:56:12;99403.06;;;6.98;98.09
22241;BME280;11289;52.524;13.694;2023-03-13T07:58:38;99409.53;;;7.02;97.55
22241;BME280;11289;52.524;13.694;2023-03-13T08:01:11;99393.44;;;7.04;98.14
22241;BME280;11289;52.524;13.694;2023-03-13T08:03:37;99397.47;;;7.07;97.96
22241;BME280;11289;52.524;13.694;2023-03-13T08:06:05;99375.06;;;7.08;97.96
22241;BME280;11289;52.524;13.694;2023-03-13T08:08:31;99369.41;;;7.05;97.96
22241;BME280;11289;52.524;13.694;2023-03-13T08:11:04;99365.31;;;7.11;98.08
22241;BME280;11289;52.524;13.694;2023-03-13T08:13:31;99365.44;;;7.14;98.58
22241;BME280;11289;52.524;13.694;2023-03-13T08:16:12;99356.00;;;7.15;98.35
22241;BME280;11289;52.524;13.694;2023-03-13T08:18:40;99350.03;;;7.13;98.74
22241;BME280;11289;52.524;13.694;2023-03-13T08:21:11;99363.25;;;7.20;98.77
22241;BME280;11289;52.524;13.694;2023-03-13T08:23:37;99349.19;;;7.13;99.17
22241;BME280;11289;52.524;13.694;2023-03-13T08:26:14;99360.16;;;7.22;99.02
22241;BME280;11289;52.524;13.694;2023-03-13T08:28:41;99335.00;;;7.23;99.52
22241;BME280;11289;52.524;13.694;2023-03-13T08:33:32;99334.78;;;7.28;100.00
22241;BME280;11289;52.524;13.694;2023-03-13T08:35:57;99330.06;;;7.29;100.00
22241;BME280;11289;52.524;13.694;2023-03-13T08:38:22;99339.28;;;7.33;100.00
22241;BME280;11289;52.524;13.694;2023-03-13T08:40:48;99325.97;;;7.35;100.00
22241;BME280;11289;52.524;13.694;2023-03-13T08:43:13;99318.63;;;7.39;100.00
22241;BME280;11289;52.524;13.694;2023-03-13T08:45:39;99312.59;;;7.37;100.00
22241;BME280;11289;52.524;13.694;2023-03-13T08:48:04;99322.28;;;7.43;100.00
22241;BME280;11289;52.524;13.694;2023-03-13T08:50:29;99307.56;;;7.39;100.00
22241;BME280;11289;52.524;13.694;2023-03-13T08:52:55;99312.16;;;7.47;100.00
22241;BME280;11289;52.524;13.694;2023-03-13T08:55:20;99296.28;;;7.44;100.00
22241;BME280;11289;52.524;13.694;2023-03-13T08:57:46;99309.75;;;7.46;100.00
22241;BME280;11289;52.524;13.694;2023-03-13T09:00:11;99312.66;;;7.49;100.00
22241;BME280;11289;52.524;13.694;2023-03-13T09:02:38;99299.28;;;7.52;100.00
22241;BME280;11289;52.524;13.694;2023-03-13T09:05:03;99301.38;;;7.55;100.00
22241;BME280;11289;52.524;13.694;2023-03-13T09:07:29;99305.50;;;7.61;100.00
22241;BME280;11289;52.524;13.694;2023-03-13T09:09:54;99295.75;;;7.63;100.00
22241;BME280;11289;52.524;13.694;2023-03-13T09:12:19;99285.03;;;7.62;100.00
22241;BME280;11289;52.524;13.694;2023-03-13T09:14:45;99292.78;;;7.69;100.00
22241;BME280;11289;52.524;13.694;2023-03-13T09:17:11;99270.19;;;7.66;100.00
22241;BME280;11289;52.524;13.694;2023-03-13T09:19:37;99280.69;;;7.73;100.00
22241;BME280;11289;52.524;13.694;2023-03-13T09:22:02;99281.38;;;7.70;100.00
22241;BME280;11289;52.524;13.694;2023-03-13T09:24:28;99275.59;;;7.75;100.00
22241;BME280;11289;52.524;13.694;2023-03-13T09:26:53;99262.16;;;7.74;100.00
22241;BME280;11289;52.524;13.694;2023-03-13T09:29:19;99286.44;;;7.80;100.00
22241;BME280;11289;52.524;13.694;2023-03-13T09:31:45;99274.00;;;7.87;100.00
22241;BME280;11289;52.524;13.694;2023-03-13T09:34:10;99284.38;;;7.90;100.00
22241;BME280;11289;52.524;13.694;2023-03-13T09:36:36;99280.56;;;7.94;100.00
22241;BME280;11289;52.524;13.694;2023-03-13T09:39:01;99279.78;;;7.94;100.00
22241;BME280;11289;52.524;13.694;2023-03-13T09:41:42;99283.91;;;8.00;100.00
22241;BME280;11289;52.524;13.694;2023-03-13T09:44:25;99280.78;;;8.01;100.00
22241;BME280;11289;52.524;13.694;2023-03-13T09:52:18;99280.94;;;8.05;100.00
22241;BME280;11289;52.524;13.694;2023-03-13T09:55:03;99288.06;;;8.06;100.00
22241;BME280;11289;52.524;13.694;2023-03-13T09:57:34;99272.28;;;8.07;100.00
22241;BME280;11289;52.524;13.694;2023-03-13T10:00:11;99279.19;;;8.13;100.00
22241;BME280;11289;52.524;13.694;2023-03-13T10:02:38;99277.34;;;8.17;100.00
22241;BME280;11289;52.524;13.694;2023-03-13T10:05:12;99265.94;;;8.18;100.00
22241;BME280;11289;52.524;13.694;2023-03-13T10:07:39;99269.63;;;8.23;100.00
22241;BME280;11289;52.524;13.694;2023-03-13T10:10:16;99252.25;;;8.22;100.00
22241;BME280;11289;52.524;13.694;2023-03-13T10:12:45;99251.19;;;8.27;100.00
22241;BME280;11289;52.524;13.694;2023-03-13T10:15:32;99248.50;;;8.30;100.00
22241;BME280;11289;52.524;13.694;2023-03-13T10:17:59;99245.88;;;8.34;100.00
22241;BME280;11289;52.524;13.694;2023-03-13T10:20:34;99253.47;;;8.37;100.00
22241;BME280;11289;52.524;13.694;2023-03-13T10:23:06;99255.44;;;8.36;100.00
22241;BME280;11289;52.524;13.694;2023-03-13T10:25:37;99251.97;;;8.40;100.00
22241;BME280;11289;52.524;13.694;2023-03-13T10:28:05;99255.19;;;8.42;100.00
22241;BME280;11289;52.524;13.694;2023-03-13T10:30:33;99243.56;;;8.36;100.00
22241;BME280;11289;52.524;13.694;2023-03-13T10:35:37;99231.81;;;8.51;100.00
22241;BME280;11289;52.524;13.694;2023-03-13T10:38:12;99234.78;;;8.59;100.00
22241;BME280;11289;52.524;13.694;2023-03-13T10:40:38;99231.31;;;8.62;100.00
22241;BME280;11289;52.524;13.694;2023-03-13T10:43:11;99230.25;;;8.66;100.00
22241;BME280;11289;52.524;13.694;2023-03-13T10:45:37;99227.34;;;8.75;100.00
22241;BME280;11289;52.524;13.694;2023-03-13T10:48:14;99216.81;;;8.81;100.00
22241;BME280;11289;52.524;13.694;2023-03-13T10:50:43;99230.06;;;8.87;100.00
22241;BME280;11289;52.524;13.694;2023-03-13T10:56:13;99209.00;;;8.99;100.00
22241;BME280;11289;52.524;13.694;2023-03-13T10:58:44;99192.31;;;9.11;100.00
22241;BME280;11289;52.524;13.694;2023-03-13T11:01:26;99203.41;;;9.27;100.00
22241;BME280;11289;52.524;13.694;2023-03-13T11:03:58;99201.19;;;9.33;100.00
22241;BME280;11289;52.524;13.694;2023-03-13T11:06:49;99198.50;;;9.52;100.00
22241;BME280;11289;52.524;13.694;2023-03-13T11:09:16;99185.28;;;9.62;99.27
22241;BME280;11289;52.524;13.694;2023-03-13T11:11:54;99179.25;;;9.75;98.97
22241;BME280;11289;52.524;13.694;2023-03-13T11:14:22;99193.09;;;9.91;98.06
22241;BME280;11289;52.524;13.694;2023-03-13T11:17:02;99183.00;;;9.99;96.80
22241;BME280;11289;52.524;13.694;2023-03-13T11:24:45;99174.84;;;10.26;95.03
22241;BME280;11289;52.524;13.694;2023-03-13T11:27:18;99150.28;;;10.44;95.81
22241;BME280;11289;52.524;13.694;2023-03-13T11:36:17;99162.59;;;11.09;92.78
22241;BME280;11289;52.524;13.694;2023-03-13T11:39:26;99142.50;;;11.15;92.49
22241;BME280;11289;52.524;13.694;2023-03-13T11:41:59;99155.03;;;11.29;91.76
22241;BME280;11289;52.524;13.694;2023-03-13T11:44:40;99141.19;;;11.32;90.02
22241;BME280;11289;52.524;13.694;2023-03-13T11:47:23;99158.31;;;11.35;90.33
22241;BME280;11289;52.524;13.694;2023-03-13T11:50:03;99149.13;;;11.34;88.76
22241;BME280;11289;52.524;13.694;2023-03-13T11:52:57;99151.66;;;11.43;89.54
22241;BME280;11289;52.524;13.694;2023-03-13T11:55:31;99145.91;;;11.55;89.96
22241;BME280;11289;52.524;13.694;2023-03-13T12:03:18;99143.66;;;11.64;87.24
22241;BME280;11289;52.524;13.694;2023-03-13T12:05:52;99132.13;;;11.62;87.59
22241;BME280;11289;52.524;13.694;2023-03-13T12:08:42;99128.59;;;11.65;86.92
22241;BME280;11289;52.524;13.694;2023-03-13T12:11:25;99135.72;;;11.63;87.47
22241;BME280;11289;52.524;13.694;2023-03-13T12:14:30;99124.59;;;11.63;88.13
22241;BME280;11289;52.524;13.694;2023-03-13T12:17:03;99137.81;;;11.70;87.67
22241;BME280;11289;52.524;13.694;2023-03-13T12:19:35;99116.84;;;11.76;87.56
22241;BME280;11289;52.524;13.694;2023-03-13T12:22:14;99134.41;;;11.83;86.54
22241;BME280;11289;52.524;13.694;2023-03-13T12:25:12;99127.44;;;11.93;87.33
22241;BME280;11289;52.524;13.694;2023-03-13T12:27:45;99124.53;;;12.13;86.87
22241;BME280;11289;52.524;13.694;2023-03-13T12:31:06;99119.97;;;12.31;86.02
22241;BME280;11289;52.524;13.694;2023-03-13T12:33:54;99116.50;;;12.38;85.03
22241;BME280;11289;52.524;13.694;2023-03-13T12:36:30;99132.50;;;12.45;84.31
22241;BME280;11289;52.524;13.694;2023-03-13T12:39:05;99119.44;;;12.52;84.22
22241;BME280;11289;52.524;13.694;2023-03-13T12:41:39;99111.50;;;12.54;84.29
22241;BME280;11289;52.524;13.694;2023-03-13T12:44:14;99108.41;;;12.63;83.74
22241;BME280;11289;52.524;13.694;2023-03-13T12:46:45;99107.00;;;12.80;84.07
22241;BME280;11289;52.524;13.694;2023-03-13T13:00:21;99068.59;;;13.49;80.76
22241;BME280;11289;52.524;13.694;2023-03-13T13:03:01;99075.59;;;13.80;80.19
22241;BME280;11289;52.524;13.694;2023-03-13T13:05:30;99067.81;;;14.25;80.00
22241;BME280;11289;52.524;13.694;2023-03-13T13:07:56;99073.09;;;14.59;77.30
22241;BME280;11289;52.524;13.694;2023-03-13T13:10:25;99063.97;;;14.70;76.64
22241;BME280;11289;52.524;13.694;2023-03-13T13:15:58;99059.13;;;14.56;75.82
22241;BME280;11289;52.524;13.694;2023-03-13T13:18:29;99077.94;;;14.70;75.32
22241;BME280;11289;52.524;13.694;2023-03-13T13:23:32;99067.63;;;15.13;74.14
22241;BME280;11289;52.524;13.694;2023-03-13T13:28:51;99056.00;;;15.33;73.69
22241;BME280;11289;52.524;13.694;2023-03-13T13:36:52;99048.44;;;15.19;72.16
22241;BME280;11289;52.524;13.694;2023-03-13T13:41:59;99049.63;;;14.89;72.65
22241;BME280;11289;52.524;13.694;2023-03-13T13:44:26;99042.03;;;14.86;72.94
22241;BME280;11289;52.524;13.694;2023-03-13T13:46:54;99032.47;;;14.84;72.78
22241;BME280;11289;52.524;13.694;2023-03-13T13:49:31;99038.06;;;14.91;72.98
22241;BME280;11289;52.524;13.694;2023-03-13T13:54:51;99037.66;;;15.07;72.03
22241;BME280;11289;52.524;13.694;2023-03-13T14:00:24;99042.84;;;15.01;72.16
22241;BME280;11289;52.524;13.694;2023-03-13T14:02:52;99038.06;;;14.94;71.95
22241;BME280;11289;52.524;13.694;2023-03-13T14:05:30;99037.25;;;14.94;71.83
22241;BME280;11289;52.524;13.694;2023-03-13T14:10:40;99034.06;;;14.81;71.73
22241;BME280;11289;52.524;13.694;2023-03-13T14:13:17;99036.44;;;14.79;72.19
22241;BME280;11289;52.524;13.694;2023-03-13T14:15:47;99030.06;;;14.82;72.03
22241;BME280;11289;52.524;13.694;2023-03-13T14:18:24;99021.28;;;14.80;71.73
22241;BME280;11289;52.524;13.694;2023-03-13T14:21:03;99031.28;;;14.77;72.02